sensor_id;sensor_type;location;lat;lon;timestamp;P1;P2;P0
30713;PMS7003;17465;47.934;33.430;2024-01-27T00:02:24;24.00;20.50;9.75
30713;PMS7003;17465;47.934;33.430;2024-01-27T00:04:54;21.75;18.50;8.00
30713;PMS7003;17465;47.934;33.430;2024-01-27T00:07:24;24.25;21.50;9.25
30713;PMS7003;17465;47.934;33.430;2024-01-27T00:09:55;21.50;18.50;9.00
30713;PMS7003;17465;47.934;33.430;2024-01-27T00:12:25;22.00;20.25;8.00
30713;PMS7003;17465;47.934;33.430;2024-01-27T00:14:55;24.25;22.50;9.75
30713;PMS7003;17465;47.934;33.430;2024-01-27T00:17:26;24.25;21.50;11.25
30713;PMS7003;17465;47.934;33.430;2024-01-27T00:19:56;21.75;21.25;13.00
30713;PMS7003;17465;47.934;33.430;2024-01-27T00:22:26;31.50;23.75;13.00
30713;PMS7003;17465;47.934;33.430;2024-01-27T00:24:56;28.50;27.00;13.00
30713;PMS7003;17465;47.934;33.430;2024-01-27T00:27:26;23.50;20.25;9.00
30713;PMS7003;17465;47.934;33.430;2024-01-27T00:29:56;36.75;33.75;13.50
30713;PMS7003;17465;47.934;33.430;2024-01-27T00:32:26;33.75;30.25;13.50
30713;PMS7003;17465;47.934;33.430;2024-01-27T00:34:57;34.50;30.75;12.75
30713;PMS7003;17465;47.934;33.430;2024-01-27T00:37:27;35.50;31.25;15.50
30713;PMS7003;17465;47.934;33.430;2024-01-27T00:39:58;28.50;26.50;15.75
30713;PMS7003;17465;47.934;33.430;2024-01-27T00:42:28;25.50;22.75;11.25
30713;PMS7003;17465;47.934;33.430;2024-01-27T00:44:58;34.00;30.75;14.25
30713;PMS7003;17465;47.934;33.430;2024-01-27T00:47:28;26.50;25.50;11.00
30713;PMS7003;17465;47.934;33.430;2024-01-27T00:49:58;30.25;27.25;12.75
30713;PMS7003;17465;47.934;33.430;2024-01-27T00:52:29;27.25;24.00;13.00
30713;PMS7003;17465;47.934;33.430;2024-01-27T00:54:59;25.00;25.00;12.33
30713;PMS7003;17465;47.934;33.430;2024-01-27T00:57:29;25.00;22.00;10.00
30713;PMS7003;17465;47.934;33.430;2024-01-27T00:59:59;22.50;20.00;11.50
30713;PMS7003;17465;47.934;33.430;2024-01-27T01:02:30;18.50;18.50;10.25
30713;PMS7003;17465;47.934;33.430;2024-01-27T01:05:00;21.25;19.00;9.50
30713;PMS7003;17465;47.934;33.430;2024-01-27T01:07:31;23.00;21.50;12.00
30713;PMS7003;17465;47.934;33.430;2024-01-27T01:10:04;17.00;16.50;9.00
30713;PMS7003;17465;47.934;33.430;2024-01-27T01:12:35;20.75;16.25;7.75
30713;PMS7003;17465;47.934;33.430;2024-01-27T01:15:05;22.25;21.25;9.50
30713;PMS7003;17465;47.934;33.430;2024-01-27T01:17:36;27.25;24.50;13.50
30713;PMS7003;17465;47.934;33.430;2024-01-27T01:20:07;16.25;15.00;6.00
30713;PMS7003;17465;47.934;33.430;2024-01-27T01:22:37;14.50;12.25;4.75
30713;PMS7003;17465;47.934;33.430;2024-01-27T01:25:08;16.75;16.00;6.00
30713;PMS7003;17465;47.934;33.430;2024-01-27T01:27:38;23.00;18.00;10.00
30713;PMS7003;17465;47.934;33.430;2024-01-27T01:30:08;13.00;13.00;2.00
30713;PMS7003;17465;47.934;33.430;2024-01-27T01:32:39;19.25;18.75;11.25
30713;PMS7003;17465;47.934;33.430;2024-01-27T01:35:10;27.00;23.00;10.00
30713;PMS7003;17465;47.934;33.430;2024-01-27T01:37:40;17.75;17.75;10.50
30713;PMS7003;17465;47.934;33.430;2024-01-27T01:40:10;25.25;24.75;13.25
30713;PMS7003;17465;47.934;33.430;2024-01-27T01:42:41;16.75;16.75;9.00
30713;PMS7003;17465;47.934;33.430;2024-01-27T01:45:11;21.75;19.75;11.50
30713;PMS7003;17465;47.934;33.430;2024-01-27T01:47:42;31.00;27.25;13.75
30713;PMS7003;17465;47.934;33.430;2024-01-27T01:50:12;26.00;23.75;11.50
30713;PMS7003;17465;47.934;33.430;2024-01-27T01:52:43;23.25;21.25;10.00
30713;PMS7003;17465;47.934;33.430;2024-01-27T01:55:16;33.50;28.00;14.00
30713;PMS7003;17465;47.934;33.430;2024-01-27T01:57:47;26.00;25.75;13.25
30713;PMS7003;17465;47.934;33.430;2024-01-27T02:00:18;22.75;21.00;13.00
30713;PMS7003;17465;47.934;33.430;2024-01-27T02:02:48;19.75;17.75;9.25
30713;PMS7003;17465;47.934;33.430;2024-01-27T02:05:19;21.50;21.50;10.25
30713;PMS7003;17465;47.934;33.430;2024-01-27T02:07:49;23.25;22.00;9.25
30713;PMS7003;17465;47.934;33.430;2024-01-27T02:10:19;21.00;21.00;12.00
30713;PMS7003;17465;47.934;33.430;2024-01-27T02:12:49;25.67;24.00;14.00
30713;PMS7003;17465;47.934;33.430;2024-01-27T02:15:19;21.00;21.00;10.25
30713;PMS7003;17465;47.934;33.430;2024-01-27T02:17:50;26.75;24.75;15.00
30713;PMS7003;17465;47.934;33.430;2024-01-27T02:20:20;29.50;25.25;12.75
30713;PMS7003;17465;47.934;33.430;2024-01-27T02:22:50;24.25;22.50;13.50
30713;PMS7003;17465;47.934;33.430;2024-01-27T02:25:20;25.00;24.25;12.75
30713;PMS7003;17465;47.934;33.430;2024-01-27T02:27:50;24.00;23.50;12.75
30713;PMS7003;17465;47.934;33.430;2024-01-27T02:30:21;32.25;28.75;14.50
30713;PMS7003;17465;47.934;33.430;2024-01-27T02:32:51;14.75;13.50;4.50
30713;PMS7003;17465;47.934;33.430;2024-01-27T02:35:21;26.75;24.25;13.75
30713;PMS7003;17465;47.934;33.430;2024-01-27T02:37:52;29.00;26.50;12.75
30713;PMS7003;17465;47.934;33.430;2024-01-27T02:40:22;36.50;30.75;15.50
30713;PMS7003;17465;47.934;33.430;2024-01-27T02:42:52;31.50;31.00;17.25
30713;PMS7003;17465;47.934;33.430;2024-01-27T02:45:22;38.50;32.00;16.50
30713;PMS7003;17465;47.934;33.430;2024-01-27T02:47:52;33.75;32.00;16.75
30713;PMS7003;17465;47.934;33.430;2024-01-27T02:50:23;36.75;33.00;16.25
30713;PMS7003;17465;47.934;33.430;2024-01-27T02:52:53;29.00;26.50;14.00
30713;PMS7003;17465;47.934;33.430;2024-01-27T02:55:23;30.00;29.00;18.00
30713;PMS7003;17465;47.934;33.430;2024-01-27T02:57:54;36.50;33.00;17.50
30713;PMS7003;17465;47.934;33.430;2024-01-27T03:00:24;31.25;28.50;15.75
30713;PMS7003;17465;47.934;33.430;2024-01-27T03:02:54;37.00;34.75;14.00
30713;PMS7003;17465;47.934;33.430;2024-01-27T03:05:24;35.50;31.25;17.00
30713;PMS7003;17465;47.934;33.430;2024-01-27T03:07:54;35.75;33.00;18.00
30713;PMS7003;17465;47.934;33.430;2024-01-27T03:10:25;33.50;29.75;14.50
30713;PMS7003;17465;47.934;33.430;2024-01-27T03:12:55;37.75;34.00;18.50
30713;PMS7003;17465;47.934;33.430;2024-01-27T03:15:25;38.75;36.25;17.25
30713;PMS7003;17465;47.934;33.430;2024-01-27T03:17:56;37.75;35.00;17.50
30713;PMS7003;17465;47.934;33.430;2024-01-27T03:20:26;36.00;31.50;16.75
30713;PMS7003;17465;47.934;33.430;2024-01-27T03:22:56;30.75;26.25;13.75
30713;PMS7003;17465;47.934;33.430;2024-01-27T03:25:27;39.50;33.00;16.25
30713;PMS7003;17465;47.934;33.430;2024-01-27T03:27:57;34.00;33.50;18.00
30713;PMS7003;17465;47.934;33.430;2024-01-27T03:30:27;36.50;35.50;18.25
30713;PMS7003;17465;47.934;33.430;2024-01-27T03:32:57;22.00;21.75;12.25
30713;PMS7003;17465;47.934;33.430;2024-01-27T03:35:27;31.75;29.50;17.00
30713;PMS7003;17465;47.934;33.430;2024-01-27T03:37:57;39.00;35.75;17.00
30713;PMS7003;17465;47.934;33.430;2024-01-27T03:40:29;32.00;25.75;9.25
30713;PMS7003;17465;47.934;33.430;2024-01-27T03:42:59;39.50;36.00;20.00
30713;PMS7003;17465;47.934;33.430;2024-01-27T03:45:30;40.25;34.50;18.50
30713;PMS7003;17465;47.934;33.430;2024-01-27T03:48:00;20.25;18.00;7.75
30713;PMS7003;17465;47.934;33.430;2024-01-27T03:50:31;42.75;31.50;16.50
30713;PMS7003;17465;47.934;33.430;2024-01-27T03:53:01;36.75;33.25;18.00
30713;PMS7003;17465;47.934;33.430;2024-01-27T03:55:31;38.75;34.00;16.75
30713;PMS7003;17465;47.934;33.430;2024-01-27T03:58:01;33.00;31.00;16.00
30713;PMS7003;17465;47.934;33.430;2024-01-27T04:00:32;35.50;34.00;17.00
30713;PMS7003;17465;47.934;33.430;2024-01-27T04:03:06;38.75;33.25;17.25
30713;PMS7003;17465;47.934;33.430;2024-01-27T04:05:36;33.50;30.50;17.00
30713;PMS7003;17465;47.934;33.430;2024-01-27T04:08:06;40.00;35.75;18.00
30713;PMS7003;17465;47.934;33.430;2024-01-27T04:10:37;41.00;34.50;19.50
30713;PMS7003;17465;47.934;33.430;2024-01-27T04:13:07;42.00;40.00;21.25
30713;PMS7003;17465;47.934;33.430;2024-01-27T04:15:37;31.25;31.25;20.00
30713;PMS7003;17465;47.934;33.430;2024-01-27T04:18:08;37.50;32.75;17.50
30713;PMS7003;17465;47.934;33.430;2024-01-27T04:20:38;39.75;37.00;19.75
30713;PMS7003;17465;47.934;33.430;2024-01-27T04:23:09;35.00;30.75;13.75
30713;PMS7003;17465;47.934;33.430;2024-01-27T04:25:39;36.00;32.75;17.25
30713;PMS7003;17465;47.934;33.430;2024-01-27T04:28:09;29.75;29.75;16.25
30713;PMS7003;17465;47.934;33.430;2024-01-27T04:30:39;38.50;35.50;21.50
30713;PMS7003;17465;47.934;33.430;2024-01-27T04:33:11;34.25;29.75;18.25
30713;PMS7003;17465;47.934;33.430;2024-01-27T04:35:41;25.75;24.50;12.25
30713;PMS7003;17465;47.934;33.430;2024-01-27T04:38:11;40.00;36.00;18.00
30713;PMS7003;17465;47.934;33.430;2024-01-27T04:40:42;36.75;32.00;17.25
30713;PMS7003;17465;47.934;33.430;2024-01-27T04:43:15;33.00;30.75;15.00
30713;PMS7003;17465;47.934;33.430;2024-01-27T04:45:47;34.00;30.75;16.50
30713;PMS7003;17465;47.934;33.430;2024-01-27T04:48:17;38.75;35.25;16.75
30713;PMS7003;17465;47.934;33.430;2024-01-27T04:50:47;35.75;32.75;17.75
30713;PMS7003;17465;47.934;33.430;2024-01-27T04:53:18;39.75;34.00;18.50
30713;PMS7003;17465;47.934;33.430;2024-01-27T04:55:48;38.75;32.75;18.25
30713;PMS7003;17465;47.934;33.430;2024-01-27T04:58:18;44.00;39.00;17.00
30713;PMS7003;17465;47.934;33.430;2024-01-27T05:00:48;39.50;37.50;19.00
30713;PMS7003;17465;47.934;33.430;2024-01-27T05:03:19;35.50;31.75;17.75
30713;PMS7003;17465;47.934;33.430;2024-01-27T05:05:49;35.75;35.75;17.75
30713;PMS7003;17465;47.934;33.430;2024-01-27T05:08:19;39.00;38.00;23.00
30713;PMS7003;17465;47.934;33.430;2024-01-27T05:10:49;40.25;37.25;20.25
30713;PMS7003;17465;47.934;33.430;2024-01-27T05:13:20;43.75;36.50;20.00
30713;PMS7003;17465;47.934;33.430;2024-01-27T05:15:51;39.50;36.00;17.75
30713;PMS7003;17465;47.934;33.430;2024-01-27T05:18:21;45.00;38.00;22.25
30713;PMS7003;17465;47.934;33.430;2024-01-27T05:20:51;35.75;34.25;20.00
30713;PMS7003;17465;47.934;33.430;2024-01-27T05:23:21;40.25;35.75;16.75
30713;PMS7003;17465;47.934;33.430;2024-01-27T05:25:51;34.00;30.00;15.75
30713;PMS7003;17465;47.934;33.430;2024-01-27T05:28:22;46.00;40.00;20.50
30713;PMS7003;17465;47.934;33.430;2024-01-27T05:30:52;36.00;34.50;17.50
30713;PMS7003;17465;47.934;33.430;2024-01-27T05:33:22;25.00;23.50;5.50
30713;PMS7003;17465;47.934;33.430;2024-01-27T05:35:52;44.75;40.00;21.50
30713;PMS7003;17465;47.934;33.430;2024-01-27T05:38:25;36.00;32.00;18.00
30713;PMS7003;17465;47.934;33.430;2024-01-27T05:40:56;47.00;40.00;23.50
30713;PMS7003;17465;47.934;33.430;2024-01-27T05:43:26;48.00;40.50;21.00
30713;PMS7003;17465;47.934;33.430;2024-01-27T05:45:58;51.00;43.50;24.50
30713;PMS7003;17465;47.934;33.430;2024-01-27T05:48:29;55.00;45.00;23.50
30713;PMS7003;17465;47.934;33.430;2024-01-27T05:50:59;43.50;40.25;24.00
30713;PMS7003;17465;47.934;33.430;2024-01-27T05:53:34;42.75;40.00;19.00
30713;PMS7003;17465;47.934;33.430;2024-01-27T05:56:05;40.00;37.25;20.00
30713;PMS7003;17465;47.934;33.430;2024-01-27T05:58:36;46.25;40.25;20.25
30713;PMS7003;17465;47.934;33.430;2024-01-27T06:01:06;47.25;42.75;25.25
30713;PMS7003;17465;47.934;33.430;2024-01-27T06:03:36;45.75;39.75;23.75
30713;PMS7003;17465;47.934;33.430;2024-01-27T06:06:09;43.25;38.75;21.00
30713;PMS7003;17465;47.934;33.430;2024-01-27T06:08:40;45.25;39.50;21.25
30713;PMS7003;17465;47.934;33.430;2024-01-27T06:11:10;44.25;40.00;19.00
30713;PMS7003;17465;47.934;33.430;2024-01-27T06:13:43;42.50;39.50;20.50
30713;PMS7003;17465;47.934;33.430;2024-01-27T06:16:13;43.25;38.25;19.50
30713;PMS7003;17465;47.934;33.430;2024-01-27T06:18:47;22.00;19.25;3.50
30713;PMS7003;17465;47.934;33.430;2024-01-27T06:21:17;38.25;31.75;17.50
30713;PMS7003;17465;47.934;33.430;2024-01-27T06:23:47;40.50;33.50;18.75
30713;PMS7003;17465;47.934;33.430;2024-01-27T06:26:17;39.00;34.00;16.75
30713;PMS7003;17465;47.934;33.430;2024-01-27T06:28:48;39.25;35.75;17.75
30713;PMS7003;17465;47.934;33.430;2024-01-27T06:31:18;37.50;34.25;17.00
30713;PMS7003;17465;47.934;33.430;2024-01-27T06:33:48;34.50;30.00;16.25
30713;PMS7003;17465;47.934;33.430;2024-01-27T06:36:18;34.25;34.25;17.75
30713;PMS7003;17465;47.934;33.430;2024-01-27T06:38:48;34.00;30.50;17.25
30713;PMS7003;17465;47.934;33.430;2024-01-27T06:41:20;31.00;29.75;13.75
30713;PMS7003;17465;47.934;33.430;2024-01-27T06:43:52;38.50;34.00;15.50
30713;PMS7003;17465;47.934;33.430;2024-01-27T06:46:22;42.25;37.25;19.25
30713;PMS7003;17465;47.934;33.430;2024-01-27T06:48:52;43.00;39.25;21.75
30713;PMS7003;17465;47.934;33.430;2024-01-27T06:51:23;46.25;39.00;21.00
30713;PMS7003;17465;47.934;33.430;2024-01-27T06:53:53;47.25;39.25;20.25
30713;PMS7003;17465;47.934;33.430;2024-01-27T06:56:23;47.00;38.25;21.75
30713;PMS7003;17465;47.934;33.430;2024-01-27T06:58:53;42.00;37.50;17.75
30713;PMS7003;17465;47.934;33.430;2024-01-27T07:01:23;45.25;42.00;21.50
30713;PMS7003;17465;47.934;33.430;2024-01-27T07:03:54;35.75;33.00;19.25
30713;PMS7003;17465;47.934;33.430;2024-01-27T07:06:24;31.25;30.50;17.25
30713;PMS7003;17465;47.934;33.430;2024-01-27T07:08:54;44.50;39.00;25.25
30713;PMS7003;17465;47.934;33.430;2024-01-27T07:11:24;47.75;41.75;23.00
30713;PMS7003;17465;47.934;33.430;2024-01-27T07:13:55;38.00;32.50;18.25
30713;PMS7003;17465;47.934;33.430;2024-01-27T07:16:25;27.75;25.50;13.00
30713;PMS7003;17465;47.934;33.430;2024-01-27T07:18:55;50.50;38.25;20.00
30713;PMS7003;17465;47.934;33.430;2024-01-27T07:21:25;39.75;35.50;18.75
30713;PMS7003;17465;47.934;33.430;2024-01-27T07:23:55;40.25;37.50;21.50
30713;PMS7003;17465;47.934;33.430;2024-01-27T07:26:25;54.50;46.75;28.50
30713;PMS7003;17465;47.934;33.430;2024-01-27T07:28:56;53.25;45.75;30.00
30713;PMS7003;17465;47.934;33.430;2024-01-27T07:31:26;46.25;39.25;24.75
30713;PMS7003;17465;47.934;33.430;2024-01-27T07:33:58;37.75;37.25;26.50
30713;PMS7003;17465;47.934;33.430;2024-01-27T07:36:28;64.50;53.75;36.25
30713;PMS7003;17465;47.934;33.430;2024-01-27T07:38:58;75.75;60.25;41.50
30713;PMS7003;17465;47.934;33.430;2024-01-27T07:41:28;55.00;47.50;32.75
30713;PMS7003;17465;47.934;33.430;2024-01-27T07:44:19;54.75;47.50;32.00
30713;PMS7003;17465;47.934;33.430;2024-01-27T07:46:38;52.25;44.00;29.25
30713;PMS7003;17465;47.934;33.430;2024-01-27T07:49:10;53.25;45.50;31.25
30713;PMS7003;17465;47.934;33.430;2024-01-27T07:51:40;53.00;45.00;29.75
30713;PMS7003;17465;47.934;33.430;2024-01-27T07:54:10;62.50;51.50;34.75
30713;PMS7003;17465;47.934;33.430;2024-01-27T07:56:40;59.00;50.00;34.00
30713;PMS7003;17465;47.934;33.430;2024-01-27T07:59:11;49.75;43.00;28.25
30713;PMS7003;17465;47.934;33.430;2024-01-27T08:01:41;51.25;45.25;31.25
30713;PMS7003;17465;47.934;33.430;2024-01-27T08:04:11;60.50;50.75;34.25
30713;PMS7003;17465;47.934;33.430;2024-01-27T08:06:48;40.25;39.00;27.50
30713;PMS7003;17465;47.934;33.430;2024-01-27T08:09:24;57.50;49.25;33.00
30713;PMS7003;17465;47.934;33.430;2024-01-27T08:11:54;19.25;13.50;10.50
30713;PMS7003;17465;47.934;33.430;2024-01-27T08:14:24;36.50;36.00;25.00
30713;PMS7003;17465;47.934;33.430;2024-01-27T08:16:56;45.00;40.00;25.75
30713;PMS7003;17465;47.934;33.430;2024-01-27T08:19:28;42.50;37.25;24.25
30713;PMS7003;17465;47.934;33.430;2024-01-27T08:21:58;41.50;39.25;28.25
30713;PMS7003;17465;47.934;33.430;2024-01-27T08:24:28;43.50;39.50;26.25
30713;PMS7003;17465;47.934;33.430;2024-01-27T08:27:00;41.75;38.25;22.50
30713;PMS7003;17465;47.934;33.430;2024-01-27T08:29:31;41.25;37.50;22.00
30713;PMS7003;17465;47.934;33.430;2024-01-27T08:32:01;34.25;34.00;22.00
30713;PMS7003;17465;47.934;33.430;2024-01-27T08:34:32;41.00;34.75;24.75
30713;PMS7003;17465;47.934;33.430;2024-01-27T08:37:02;40.00;38.75;25.75
30713;PMS7003;17465;47.934;33.430;2024-01-27T08:39:35;36.75;34.50;22.25
30713;PMS7003;17465;47.934;33.430;2024-01-27T08:42:06;40.75;37.50;23.50
30713;PMS7003;17465;47.934;33.430;2024-01-27T08:44:38;40.50;38.25;26.75
30713;PMS7003;17465;47.934;33.430;2024-01-27T08:47:09;42.75;39.25;26.00
30713;PMS7003;17465;47.934;33.430;2024-01-27T08:49:42;44.00;40.50;24.25
30713;PMS7003;17465;47.934;33.430;2024-01-27T08:52:12;33.00;31.75;23.50
30713;PMS7003;17465;47.934;33.430;2024-01-27T08:54:42;45.50;41.25;28.50
30713;PMS7003;17465;47.934;33.430;2024-01-27T08:57:12;51.50;46.00;29.25
30713;PMS7003;17465;47.934;33.430;2024-01-27T08:59:42;48.00;44.00;30.25
30713;PMS7003;17465;47.934;33.430;2024-01-27T09:02:13;40.00;37.50;27.75
30713;PMS7003;17465;47.934;33.430;2024-01-27T09:04:43;51.00;42.00;29.75
30713;PMS7003;17465;47.934;33.430;2024-01-27T09:07:13;36.00;35.00;26.75
30713;PMS7003;17465;47.934;33.430;2024-01-27T09:09:43;41.00;32.50;19.50
30713;PMS7003;17465;47.934;33.430;2024-01-27T09:12:14;40.75;36.50;29.25
30713;PMS7003;17465;47.934;33.430;2024-01-27T09:14:44;37.75;37.25;24.25
30713;PMS7003;17465;47.934;33.430;2024-01-27T09:17:14;39.25;35.75;25.00
30713;PMS7003;17465;47.934;33.430;2024-01-27T09:19:44;40.50;33.25;19.75
30713;PMS7003;17465;47.934;33.430;2024-01-27T09:22:15;31.75;31.75;22.00
30713;PMS7003;17465;47.934;33.430;2024-01-27T09:24:45;35.00;32.25;19.75
30713;PMS7003;17465;47.934;33.430;2024-01-27T09:27:15;40.50;34.75;17.75
30713;PMS7003;17465;47.934;33.430;2024-01-27T09:29:46;33.50;32.25;19.00
30713;PMS7003;17465;47.934;33.430;2024-01-27T09:32:16;28.75;28.75;17.25
30713;PMS7003;17465;47.934;33.430;2024-01-27T09:34:46;37.00;33.00;23.00
30713;PMS7003;17465;47.934;33.430;2024-01-27T09:37:17;33.50;29.25;19.25
30713;PMS7003;17465;47.934;33.430;2024-01-27T09:39:52;32.75;29.00;21.75
30713;PMS7003;17465;47.934;33.430;2024-01-27T09:42:20;25.75;25.75;17.50
30713;PMS7003;17465;47.934;33.430;2024-01-27T09:44:50;34.00;26.00;17.25
30713;PMS7003;17465;47.934;33.430;2024-01-27T09:47:29;28.25;25.00;12.75
30713;PMS7003;17465;47.934;33.430;2024-01-27T09:49:55;25.00;24.25;13.25
30713;PMS7003;17465;47.934;33.430;2024-01-27T09:52:26;25.25;20.25;10.00
30713;PMS7003;17465;47.934;33.430;2024-01-27T09:54:57;23.75;21.50;8.50
30713;PMS7003;17465;47.934;33.430;2024-01-27T09:57:27;25.50;21.50;12.00
30713;PMS7003;17465;47.934;33.430;2024-01-27T09:59:58;21.75;19.75;10.75
30713;PMS7003;17465;47.934;33.430;2024-01-27T10:02:29;34.00;29.00;17.25
30713;PMS7003;17465;47.934;33.430;2024-01-27T10:05:00;29.50;24.75;13.75
30713;PMS7003;17465;47.934;33.430;2024-01-27T10:07:31;26.00;25.75;14.00
30713;PMS7003;17465;47.934;33.430;2024-01-27T10:10:02;25.75;23.00;9.75
30713;PMS7003;17465;47.934;33.430;2024-01-27T10:12:33;31.25;24.50;11.50
30713;PMS7003;17465;47.934;33.430;2024-01-27T10:15:24;24.25;23.00;11.50
30713;PMS7003;17465;47.934;33.430;2024-01-27T10:17:51;25.00;25.00;18.50
30713;PMS7003;17465;47.934;33.430;2024-01-27T10:20:22;15.75;13.25;3.00
30713;PMS7003;17465;47.934;33.430;2024-01-27T10:22:52;18.00;16.50;3.50
30713;PMS7003;17465;47.934;33.430;2024-01-27T10:25:22;16.50;16.25;5.75
30713;PMS7003;17465;47.934;33.430;2024-01-27T10:27:55;25.25;21.50;10.25
30713;PMS7003;17465;47.934;33.430;2024-01-27T10:30:27;20.00;19.50;10.50
30713;PMS7003;17465;47.934;33.430;2024-01-27T10:32:57;25.00;19.50;8.00
30713;PMS7003;17465;47.934;33.430;2024-01-27T10:35:30;20.00;16.60;4.80
30713;PMS7003;17465;47.934;33.430;2024-01-27T10:38:00;18.00;14.25;6.50
30713;PMS7003;17465;47.934;33.430;2024-01-27T10:40:31;15.25;13.75;3.00
30713;PMS7003;17465;47.934;33.430;2024-01-27T10:45:35;15.00;15.00;5.50
30713;PMS7003;17465;47.934;33.430;2024-01-27T10:48:10;14.00;11.20;3.00
30713;PMS7003;17465;47.934;33.430;2024-01-27T10:50:41;16.60;15.00;5.40
30713;PMS7003;17465;47.934;33.430;2024-01-27T10:53:23;17.40;15.80;3.40
30713;PMS7003;17465;47.934;33.430;2024-01-27T10:55:55;16.50;13.00;4.50
30713;PMS7003;17465;47.934;33.430;2024-01-27T10:58:27;12.00;12.00;6.00
30713;PMS7003;17465;47.934;33.430;2024-01-27T11:01:00;23.25;19.25;7.00
30713;PMS7003;17465;47.934;33.430;2024-01-27T11:03:31;21.50;17.25;6.00
30713;PMS7003;17465;47.934;33.430;2024-01-27T11:06:04;26.25;19.00;8.50
30713;PMS7003;17465;47.934;33.430;2024-01-27T11:08:37;18.00;15.50;5.75
30713;PMS7003;17465;47.934;33.430;2024-01-27T11:11:10;16.00;14.75;4.00
30713;PMS7003;17465;47.934;33.430;2024-01-27T11:13:40;18.00;16.50;5.00
30713;PMS7003;17465;47.934;33.430;2024-01-27T11:16:17;14.50;12.50;5.25
30713;PMS7003;17465;47.934;33.430;2024-01-27T11:18:48;10.60;10.20;2.80
30713;PMS7003;17465;47.934;33.430;2024-01-27T11:21:19;14.00;12.20;5.00
30713;PMS7003;17465;47.934;33.430;2024-01-27T11:23:49;20.20;18.80;7.00
30713;PMS7003;17465;47.934;33.430;2024-01-27T11:26:20;17.25;17.25;5.50
30713;PMS7003;17465;47.934;33.430;2024-01-27T11:28:52;16.60;14.20;4.80
30713;PMS7003;17465;47.934;33.430;2024-01-27T11:31:22;16.20;14.00;4.20
30713;PMS7003;17465;47.934;33.430;2024-01-27T11:33:55;13.00;13.00;5.00
30713;PMS7003;17465;47.934;33.430;2024-01-27T11:36:24;17.75;16.25;7.25
30713;PMS7003;17465;47.934;33.430;2024-01-27T11:38:55;22.50;17.50;11.75
30713;PMS7003;17465;47.934;33.430;2024-01-27T11:41:28;16.25;16.25;6.00
30713;PMS7003;17465;47.934;33.430;2024-01-27T11:43:59;10.75;10.25;5.00
30713;PMS7003;17465;47.934;33.430;2024-01-27T11:46:30;13.75;11.25;5.00
30713;PMS7003;17465;47.934;33.430;2024-01-27T11:49:02;9.50;9.50;3.00
30713;PMS7003;17465;47.934;33.430;2024-01-27T11:51:34;13.75;13.50;2.00
30713;PMS7003;17465;47.934;33.430;2024-01-27T11:54:05;10.00;10.00;3.00
30713;PMS7003;17465;47.934;33.430;2024-01-27T11:56:35;9.75;8.50;1.25
30713;PMS7003;17465;47.934;33.430;2024-01-27T11:59:07;11.00;10.50;3.00
30713;PMS7003;17465;47.934;33.430;2024-01-27T12:01:37;15.50;15.50;6.75
30713;PMS7003;17465;47.934;33.430;2024-01-27T12:04:09;11.75;11.75;5.00
30713;PMS7003;17465;47.934;33.430;2024-01-27T12:06:39;19.75;16.50;6.50
30713;PMS7003;17465;47.934;33.430;2024-01-27T12:09:10;13.50;11.50;5.00
30713;PMS7003;17465;47.934;33.430;2024-01-27T12:11:41;12.75;10.75;4.50
30713;PMS7003;17465;47.934;33.430;2024-01-27T12:14:11;11.75;11.75;5.25
30713;PMS7003;17465;47.934;33.430;2024-01-27T12:16:42;12.25;11.00;4.50
30713;PMS7003;17465;47.934;33.430;2024-01-27T12:19:12;15.75;11.75;5.00
30713;PMS7003;17465;47.934;33.430;2024-01-27T12:21:48;12.00;9.67;2.00
30713;PMS7003;17465;47.934;33.430;2024-01-27T12:24:23;15.50;13.50;5.00
30713;PMS7003;17465;47.934;33.430;2024-01-27T12:26:55;13.00;9.75;1.00
30713;PMS7003;17465;47.934;33.430;2024-01-27T12:29:25;14.00;12.50;5.00
30713;PMS7003;17465;47.934;33.430;2024-01-27T12:31:55;22.50;17.50;5.25
30713;PMS7003;17465;47.934;33.430;2024-01-27T12:34:29;18.00;13.00;6.25
30713;PMS7003;17465;47.934;33.430;2024-01-27T12:37:00;11.75;11.75;1.50
30713;PMS7003;17465;47.934;33.430;2024-01-27T12:39:32;16.50;14.50;3.00
30713;PMS7003;17465;47.934;33.430;2024-01-27T12:42:31;15.00;11.00;6.00
30713;PMS7003;17465;47.934;33.430;2024-01-27T12:45:00;20.00;18.00;7.00
30713;PMS7003;17465;47.934;33.430;2024-01-27T12:47:30;15.75;14.50;2.50
30713;PMS7003;17465;47.934;33.430;2024-01-27T12:50:01;18.75;16.25;4.50
30713;PMS7003;17465;47.934;33.430;2024-01-27T12:52:32;16.25;13.75;5.00
30713;PMS7003;17465;47.934;33.430;2024-01-27T12:55:02;18.25;13.00;4.00
30713;PMS7003;17465;47.934;33.430;2024-01-27T12:57:33;17.75;14.00;2.00
30713;PMS7003;17465;47.934;33.430;2024-01-27T13:00:07;19.00;17.25;9.00
30713;PMS7003;17465;47.934;33.430;2024-01-27T13:02:56;16.50;14.50;8.50
30713;PMS7003;17465;47.934;33.430;2024-01-27T13:05:28;18.50;12.75;6.00
30713;PMS7003;17465;47.934;33.430;2024-01-27T13:07:58;8.00;8.00;4.75
30713;PMS7003;17465;47.934;33.430;2024-01-27T13:10:28;18.00;15.25;6.25
30713;PMS7003;17465;47.934;33.430;2024-01-27T13:12:58;14.00;12.50;2.75
30713;PMS7003;17465;47.934;33.430;2024-01-27T13:15:29;14.25;14.25;5.25
30713;PMS7003;17465;47.934;33.430;2024-01-27T13:18:04;20.00;18.75;5.75
30713;PMS7003;17465;47.934;33.430;2024-01-27T13:20:33;25.25;23.50;7.50
30713;PMS7003;17465;47.934;33.430;2024-01-27T13:23:03;24.25;24.25;7.50
30713;PMS7003;17465;47.934;33.430;2024-01-27T13:25:33;28.00;25.75;10.25
30713;PMS7003;17465;47.934;33.430;2024-01-27T13:28:04;18.50;16.75;9.00
30713;PMS7003;17465;47.934;33.430;2024-01-27T13:30:34;23.75;20.75;7.50
30713;PMS7003;17465;47.934;33.430;2024-01-27T13:33:04;22.50;18.25;5.75
30713;PMS7003;17465;47.934;33.430;2024-01-27T13:35:34;22.50;20.75;9.50
30713;PMS7003;17465;47.934;33.430;2024-01-27T13:38:05;24.00;22.00;9.00
30713;PMS7003;17465;47.934;33.430;2024-01-27T13:40:35;28.25;22.50;10.75
30713;PMS7003;17465;47.934;33.430;2024-01-27T13:43:06;23.00;22.00;9.50
30713;PMS7003;17465;47.934;33.430;2024-01-27T13:45:42;25.50;22.50;10.00
30713;PMS7003;17465;47.934;33.430;2024-01-27T13:48:12;28.75;24.50;15.00
30713;PMS7003;17465;47.934;33.430;2024-01-27T13:50:49;37.25;33.25;19.00
30713;PMS7003;17465;47.934;33.430;2024-01-27T13:53:26;33.75;33.75;18.50
30713;PMS7003;17465;47.934;33.430;2024-01-27T13:55:58;30.25;28.25;17.75
30713;PMS7003;17465;47.934;33.430;2024-01-27T13:58:29;36.00;33.00;19.00
30713;PMS7003;17465;47.934;33.430;2024-01-27T14:01:05;29.00;29.00;16.00
30713;PMS7003;17465;47.934;33.430;2024-01-27T14:03:39;33.25;27.75;14.25